Hotevilla, Arizona
Current Conditions -  °F | °C
As of 5:56 AM on Thursday 30 Oct 2014 (Local Time) from KINW Reporting Station
Clear Clear  
Wind Chill:   Ceiling: Unl
Heat Index:   Visibility: 10mi
Dew Point: -4°   Wind: 0mph
Humidity: 73%   Direction: NA
Pressure: 30.3"   Gusts: NA
Location:  35.93°N, 110.67°W
Report Text: KINW 301256Z AUTO 00000KT 10SM CLR 00/M04 A3030 RMK AO2 SLP237 T00001044
Loading
Personal Weather Stations






























Interactive Weather Map
Tropical Storm Tracking
New forecast layout! Learn more

10-Day Weather Forecast

Advertisements
Track Severe Weather on mobile